• Join FlightAware (Why Join?)
  • Login
  • US Flag 
11:23AM EDT


 

Airport Tracker/Info


-or-


 

Live Flight TrackerFlight Track Log ✈ UAL3817 ✈ 11-Jul-2013 ✈ KORD - KSYR

Flight Track Log - Related Links

Times and Time Zones

All times are in EDT time to prevent confusion due to time zone crossing. See the UAL3817 flight status page for this flight to view local times or setup timezone preferences in your user account.

Time Position Orientation Groundspeed Altitude Reporting Facility
EDT Latitude Longitude Course Direction KTS MPH feet Rate Location/Type
10:05AM 42.0167 -87.9667 80° East 184 212 2,700  Level Chicago TRACON
10:07AM 42.0667 -87.9500 14° North 225 259 4,700 1,200 Climbing Chicago TRACON
10:08AM 42.0433 -87.4414 83° East  Level FlightAware Approximate
10:08AM 42.1172 -87.8689 50° Northeast 241 277 5,500  Level Chicago Center
10:09AM 42.0627 -87.2843 78° East  Level FlightAware Approximate
10:09AM 42.1517 -87.7842 61° Northeast 257 296 7,900  Level Chicago Center
10:10AM 42.0870 -87.1283 77° East  Level FlightAware Approximate
10:10AM 42.1528 -87.6806 89° East 279 321 10,100  Level Chicago Center
10:11AM 42.1024 -86.9805 80° East  Level FlightAware Approximate
10:11AM 42.1439 -87.5475 95° East 296 341 12,400  Level Chicago Center
10:12AM 42.1364 -87.4308 95° East 311 358 13,800 1,140 Climbing Chicago Center
10:13AM 42.1278 -87.3008 95° East 341 392 14,800 960 Climbing Chicago Center
10:14AM 42.1186 -87.1617 95° East 368 423 15,900 960 Climbing Chicago Center
10:15AM 42.1119 -87.0172 94° East 385 443 16,900 840 Climbing Chicago Center
10:16AM 42.1192 -86.8689 86° East 399 459 17,700 960 Climbing Chicago Center
10:17AM 42.1250 -86.6850 87° East 404 465 19,000 1,080 Climbing Chicago Center
10:18AM 42.1308 -86.5303 87° East 422 486 20,000 960 Climbing Chicago Center
10:19AM 42.1361 -86.3717 87° East 424 488 21,000 960 Climbing Chicago Center
10:20AM 42.1408 -86.2078 88° East 435 501 22,000 960 Climbing Chicago Center
10:21AM 42.1431 -86.0417 89° East 440 506 23,000 960 Climbing Chicago Center
10:22AM 42.1414 -85.8542 91° East 447 514 24,100 960 Climbing Chicago Center
10:23AM 42.1408 -85.6867 90° East 450 518 25,100 960 Climbing Chicago Center
10:24AM 42.1386 -85.5172 91° East 455 524 26,100 960 Climbing Chicago Center
10:25AM 42.1372 -85.3467 91° East 457 526 27,100 1,020 Climbing Chicago Center
10:26AM 42.1344 -85.1403 91° East 462 532 28,300 1,020 Climbing Chicago Center
10:27AM 42.1369 -84.9714 89° East 454 522 29,300 960 Climbing Chicago Center
10:28AM 42.1492 -84.8028 84° East 453 521 30,300 1,020 Climbing Chicago Center
10:29AM 42.1603 -84.6328 85° East 456 525 31,500 1,080 Climbing Chicago Center
10:31AM 42.1711 -84.4644 85° East 454 522 32,600 1,080 Climbing Chicago Center
10:32AM 42.1842 -84.2597 85° East 457 526 33,800 1,080 Climbing Chicago Center
10:33AM 42.1961 -84.0889 85° East 458 527 34,900 540 Climbing Chicago Center
10:34AM 42.2069 -83.9144 85° East 464 534 35,000  Climbing Chicago Center
10:35AM 42.2172 -83.7347 86° East 475 547 35,000  Level Chicago Center
10:36AM 42.2261 -83.5414 86° East 476 548 35,000  Level Cleveland Center
10:37AM 42.2289 -83.3508 89° East 504 580 35,000  Level Cleveland Center
10:38AM 42.2292 -83.1575 90° East 515 593 35,000  Level Cleveland Center
10:39AM 42.2311 -82.9697 89° East 510 587 35,000  Level Cleveland Center
10:40AM 42.2350 -82.7819 88° East 504 580 35,000  Level Cleveland Center
10:41AM 42.2592 -82.5975 80° East 497 572 35,000  Level Cleveland Center
10:42AM 42.2872 -82.4075 79° East 503 579 35,000  Level Cleveland Center
10:43AM 42.3131 -82.2172 80° East 503 579 35,000  Level Cleveland Center
10:45AM 42.3658 -81.8281 79° East 503 579 35,000  Level Cleveland Center
10:46AM 42.3908 -81.6431 80° East 503 579 35,000  Level Cleveland Center
10:47AM 42.4153 -81.4550 80° East 503 579 35,000  Level Cleveland Center
10:48AM 42.4394 -81.2669 80° East 503 579 35,000  Level Cleveland Center
10:49AM 42.4611 -81.1011 80° East 508 585 35,000  Level Cleveland Center
10:50AM 42.4847 -80.9097 80° East 508 585 35,000  Level Cleveland Center
10:51AM 42.5061 -80.7183 81° East 503 579 35,000  Level Cleveland Center
10:52AM 42.5311 -80.5325 80° East 503 579 35,000 -480 Level Cleveland Center
10:53AM 42.5517 -80.3492 81° East 503 579 34,100 -960 Descending Cleveland Center
10:54AM 42.5761 -80.1433 81° East 503 579 33,100 -600 Descending Cleveland Center
10:55AM 42.5961 -79.9628 81° East 503 579 33,000 -300 Descending Cleveland Center
10:56AM 42.6178 -79.7764 81° East 498 573 32,600 -660 Descending Cleveland Center
10:57AM 42.6394 -79.5897 81° East 498 573 31,700 -960 Descending Cleveland Center
10:58AM 42.6606 -79.4114 81° East 493 567 30,700 -960 Descending Cleveland Center
10:59AM 42.6794 -79.2247 82° East 493 567 29,800 -960 Descending Cleveland Center
11:00AM 42.7000 -79.0408 81° East 493 567 28,800 -960 Descending Cleveland Center
11:01AM 42.7183 -78.8536 82° East 493 567 27,900 -900 Descending Cleveland Center
11:02AM 42.7383 -78.6667 82° East 493 567 27,000 -480 Descending Cleveland Center
11:03AM 42.7581 -78.4822 82° East 488 562 27,000  Level Cleveland Center
11:04AM 42.7753 -78.2950 83° East 488 562 27,000  Level Cleveland Center
11:05AM 42.7942 -78.1075 82° East 493 567 27,000 -420 Level Cleveland Center
11:06AM 42.8111 -77.9228 83° East 493 567 26,200 -1,440 Descending Cleveland Center
11:07AM 42.8294 -77.7350 82° East 498 573 24,200 -2,040 Descending Cleveland Center
11:08AM 42.8458 -77.5558 83° East 493 567 22,200 -2,040 Descending Cleveland Center
11:09AM 42.8619 -77.3822 83° East 477 549 20,200 -2,160 Descending Cleveland Center
11:10AM 42.8778 -77.2086 83° East 464 534 17,900 -2,760 Descending Cleveland Center
11:12AM 42.9522 -76.8661 73° East 393 452 11,000 -2,280 Descending Boston Center
11:13AM 42.9764 -76.7203 77° East 353 406 10,400 -1,020 Descending Boston Center
11:14AM 42.9911 -76.6047 80° East 298 343 9,000 -1,560 Descending Boston Center
11:15AM 43.0036 -76.4950 81° East 288 331 7,300 -1,620 Descending Boston Center
11:16AM 43.0156 -76.3933 81° East 274 315 5,800 -1,200 Descending Boston Center
11:17AM 43.0250 -76.2944 83° East 260 299 5,000 -600 Descending Boston Center
11:18AM 43.0367 -76.1958 81° East 263 303 4,700 -720 Descending Boston Center
11:19AM 43.0483 -76.0914 81° East 263 303 3,600 -900 Descending Boston Center
11:20AM 43.0575 -76.0067 82° East 242 278 3,000 -720 Descending Boston Center